sensor_id;sensor_type;location;lat;lon;timestamp;P1;durP1;ratioP1;P2;durP2;ratioP2
10641;SDS011;5369;49.586;8.646;2023-02-10T00:00:56;47.23;;;27.43;;
10641;SDS011;5369;49.586;8.646;2023-02-10T00:03:22;47.67;;;27.43;;
10641;SDS011;5369;49.586;8.646;2023-02-10T00:05:53;43.30;;;26.60;;
10641;SDS011;5369;49.586;8.646;2023-02-10T00:08:19;50.83;;;28.43;;
10641;SDS011;5369;49.586;8.646;2023-02-10T00:10:46;46.83;;;26.77;;
10641;SDS011;5369;49.586;8.646;2023-02-10T00:13:12;44.70;;;26.07;;
10641;SDS011;5369;49.586;8.646;2023-02-10T00:15:38;41.73;;;24.63;;
10641;SDS011;5369;49.586;8.646;2023-02-10T00:18:04;48.90;;;27.80;;
10641;SDS011;5369;49.586;8.646;2023-02-10T00:20:30;47.97;;;27.17;;
10641;SDS011;5369;49.586;8.646;2023-02-10T00:22:56;52.93;;;29.47;;
10641;SDS011;5369;49.586;8.646;2023-02-10T00:25:22;54.30;;;31.03;;
10641;SDS011;5369;49.586;8.646;2023-02-10T00:27:49;56.80;;;32.17;;
10641;SDS011;5369;49.586;8.646;2023-02-10T00:30:15;53.43;;;30.67;;
10641;SDS011;5369;49.586;8.646;2023-02-10T00:32:41;51.07;;;30.03;;
10641;SDS011;5369;49.586;8.646;2023-02-10T00:35:07;63.67;;;33.00;;
10641;SDS011;5369;49.586;8.646;2023-02-10T00:37:34;57.60;;;31.57;;
10641;SDS011;5369;49.586;8.646;2023-02-10T00:40:00;56.10;;;29.90;;
10641;SDS011;5369;49.586;8.646;2023-02-10T00:42:29;54.10;;;30.03;;
10641;SDS011;5369;49.586;8.646;2023-02-10T00:44:55;53.20;;;29.43;;
10641;SDS011;5369;49.586;8.646;2023-02-10T00:47:21;55.33;;;31.30;;
10641;SDS011;5369;49.586;8.646;2023-02-10T00:49:52;50.77;;;28.57;;
10641;SDS011;5369;49.586;8.646;2023-02-10T00:52:20;47.00;;;27.83;;
10641;SDS011;5369;49.586;8.646;2023-02-10T00:54:47;43.53;;;26.07;;
10641;SDS011;5369;49.586;8.646;2023-02-10T00:57:13;52.87;;;29.60;;
10641;SDS011;5369;49.586;8.646;2023-02-10T00:59:39;48.37;;;28.40;;
10641;SDS011;5369;49.586;8.646;2023-02-10T01:02:05;48.67;;;27.93;;
10641;SDS011;5369;49.586;8.646;2023-02-10T01:04:32;49.47;;;27.93;;
10641;SDS011;5369;49.586;8.646;2023-02-10T01:06:58;46.20;;;27.53;;
10641;SDS011;5369;49.586;8.646;2023-02-10T01:09:24;47.03;;;27.50;;
10641;SDS011;5369;49.586;8.646;2023-02-10T01:11:51;48.13;;;27.77;;
10641;SDS011;5369;49.586;8.646;2023-02-10T01:14:17;48.10;;;27.27;;
10641;SDS011;5369;49.586;8.646;2023-02-10T01:16:43;44.13;;;26.10;;
10641;SDS011;5369;49.586;8.646;2023-02-10T01:19:10;47.30;;;27.90;;
10641;SDS011;5369;49.586;8.646;2023-02-10T01:21:36;50.63;;;28.27;;
10641;SDS011;5369;49.586;8.646;2023-02-10T01:24:04;51.30;;;28.47;;
10641;SDS011;5369;49.586;8.646;2023-02-10T01:26:31;54.67;;;29.17;;
10641;SDS011;5369;49.586;8.646;2023-02-10T01:28:57;49.13;;;28.50;;
10641;SDS011;5369;49.586;8.646;2023-02-10T01:31:23;51.80;;;28.83;;
10641;SDS011;5369;49.586;8.646;2023-02-10T01:33:50;49.93;;;28.60;;
10641;SDS011;5369;49.586;8.646;2023-02-10T01:36:17;50.63;;;28.83;;
10641;SDS011;5369;49.586;8.646;2023-02-10T01:38:44;54.00;;;30.20;;
10641;SDS011;5369;49.586;8.646;2023-02-10T01:41:11;51.37;;;29.33;;
10641;SDS011;5369;49.586;8.646;2023-02-10T01:46:25;46.03;;;26.40;;
10641;SDS011;5369;49.586;8.646;2023-02-10T01:48:51;47.40;;;27.07;;
10641;SDS011;5369;49.586;8.646;2023-02-10T01:51:19;47.77;;;26.70;;
10641;SDS011;5369;49.586;8.646;2023-02-10T01:53:47;51.87;;;28.80;;
10641;SDS011;5369;49.586;8.646;2023-02-10T01:56:13;46.43;;;26.53;;
10641;SDS011;5369;49.586;8.646;2023-02-10T01:58:41;48.10;;;27.60;;
10641;SDS011;5369;49.586;8.646;2023-02-10T02:01:09;46.90;;;26.50;;
10641;SDS011;5369;49.586;8.646;2023-02-10T02:03:35;51.10;;;27.73;;
10641;SDS011;5369;49.586;8.646;2023-02-10T02:06:02;49.13;;;28.40;;
10641;SDS011;5369;49.586;8.646;2023-02-10T02:08:28;48.63;;;27.47;;
10641;SDS011;5369;49.586;8.646;2023-02-10T02:11:12;47.33;;;26.90;;
10641;SDS011;5369;49.586;8.646;2023-02-10T02:13:47;47.87;;;27.10;;
10641;SDS011;5369;49.586;8.646;2023-02-10T02:18:56;45.60;;;26.17;;
10641;SDS011;5369;49.586;8.646;2023-02-10T02:24:13;49.77;;;27.37;;
10641;SDS011;5369;49.586;8.646;2023-02-10T02:26:46;54.40;;;29.43;;
10641;SDS011;5369;49.586;8.646;2023-02-10T02:32:09;48.93;;;27.60;;
10641;SDS011;5369;49.586;8.646;2023-02-10T02:34:39;53.83;;;29.50;;
10641;SDS011;5369;49.586;8.646;2023-02-10T02:37:13;48.40;;;27.13;;
10641;SDS011;5369;49.586;8.646;2023-02-10T02:39:42;45.60;;;26.43;;
10641;SDS011;5369;49.586;8.646;2023-02-10T02:44:38;48.93;;;27.23;;
10641;SDS011;5369;49.586;8.646;2023-02-10T02:47:07;39.80;;;25.00;;
10641;SDS011;5369;49.586;8.646;2023-02-10T02:49:53;47.33;;;26.57;;
10641;SDS011;5369;49.586;8.646;2023-02-10T02:52:28;45.97;;;25.70;;
10641;SDS011;5369;49.586;8.646;2023-02-10T02:54:58;44.57;;;24.13;;
10641;SDS011;5369;49.586;8.646;2023-02-10T02:57:34;45.97;;;26.13;;
10641;SDS011;5369;49.586;8.646;2023-02-10T03:00:06;47.90;;;25.80;;
10641;SDS011;5369;49.586;8.646;2023-02-10T03:02:35;45.20;;;24.73;;
10641;SDS011;5369;49.586;8.646;2023-02-10T03:05:03;47.10;;;27.13;;
10641;SDS011;5369;49.586;8.646;2023-02-10T03:07:29;47.93;;;26.57;;
10641;SDS011;5369;49.586;8.646;2023-02-10T03:09:55;49.63;;;27.77;;
10641;SDS011;5369;49.586;8.646;2023-02-10T03:12:21;46.63;;;27.30;;
10641;SDS011;5369;49.586;8.646;2023-02-10T03:14:48;45.27;;;25.60;;
10641;SDS011;5369;49.586;8.646;2023-02-10T03:17:14;44.20;;;26.23;;
10641;SDS011;5369;49.586;8.646;2023-02-10T03:19:40;50.40;;;25.63;;
10641;SDS011;5369;49.586;8.646;2023-02-10T03:22:06;44.97;;;26.13;;
10641;SDS011;5369;49.586;8.646;2023-02-10T03:24:33;43.80;;;25.07;;
10641;SDS011;5369;49.586;8.646;2023-02-10T03:26:59;42.73;;;25.20;;
10641;SDS011;5369;49.586;8.646;2023-02-10T03:29:25;41.67;;;25.27;;
10641;SDS011;5369;49.586;8.646;2023-02-10T03:31:51;47.33;;;25.20;;
10641;SDS011;5369;49.586;8.646;2023-02-10T03:34:17;46.93;;;27.53;;
10641;SDS011;5369;49.586;8.646;2023-02-10T03:36:43;42.53;;;25.63;;
10641;SDS011;5369;49.586;8.646;2023-02-10T03:39:09;42.93;;;24.67;;
10641;SDS011;5369;49.586;8.646;2023-02-10T03:41:35;43.37;;;25.73;;
10641;SDS011;5369;49.586;8.646;2023-02-10T03:44:01;44.30;;;25.27;;
10641;SDS011;5369;49.586;8.646;2023-02-10T03:46:28;43.93;;;26.20;;
10641;SDS011;5369;49.586;8.646;2023-02-10T03:48:54;46.07;;;26.37;;
10641;SDS011;5369;49.586;8.646;2023-02-10T03:51:20;46.33;;;28.83;;
10641;SDS011;5369;49.586;8.646;2023-02-10T03:53:46;48.40;;;28.63;;
10641;SDS011;5369;49.586;8.646;2023-02-10T03:56:13;44.87;;;25.67;;
10641;SDS011;5369;49.586;8.646;2023-02-10T03:58:39;42.70;;;25.47;;
10641;SDS011;5369;49.586;8.646;2023-02-10T04:01:09;44.80;;;25.33;;
10641;SDS011;5369;49.586;8.646;2023-02-10T04:03:36;43.67;;;25.23;;
10641;SDS011;5369;49.586;8.646;2023-02-10T04:06:02;41.93;;;25.37;;
10641;SDS011;5369;49.586;8.646;2023-02-10T04:08:28;44.00;;;26.50;;
10641;SDS011;5369;49.586;8.646;2023-02-10T04:10:54;47.33;;;28.10;;
10641;SDS011;5369;49.586;8.646;2023-02-10T04:13:21;46.97;;;26.50;;
10641;SDS011;5369;49.586;8.646;2023-02-10T04:15:47;50.47;;;27.50;;
10641;SDS011;5369;49.586;8.646;2023-02-10T04:18:13;46.70;;;27.43;;
10641;SDS011;5369;49.586;8.646;2023-02-10T04:20:39;48.60;;;27.57;;
10641;SDS011;5369;49.586;8.646;2023-02-10T04:23:05;44.60;;;26.33;;
10641;SDS011;5369;49.586;8.646;2023-02-10T04:25:31;44.30;;;25.97;;
10641;SDS011;5369;49.586;8.646;2023-02-10T04:27:58;44.10;;;26.10;;
10641;SDS011;5369;49.586;8.646;2023-02-10T04:30:24;46.87;;;25.73;;
10641;SDS011;5369;49.586;8.646;2023-02-10T04:32:50;46.45;;;27.15;;
10641;SDS011;5369;49.586;8.646;2023-02-10T04:35:16;45.97;;;26.43;;
10641;SDS011;5369;49.586;8.646;2023-02-10T04:37:42;45.13;;;26.93;;
10641;SDS011;5369;49.586;8.646;2023-02-10T04:40:09;49.13;;;27.37;;
10641;SDS011;5369;49.586;8.646;2023-02-10T04:42:35;46.87;;;27.33;;
10641;SDS011;5369;49.586;8.646;2023-02-10T04:45:01;44.87;;;26.03;;
10641;SDS011;5369;49.586;8.646;2023-02-10T04:47:27;46.27;;;25.60;;
10641;SDS011;5369;49.586;8.646;2023-02-10T04:49:54;48.83;;;25.70;;
10641;SDS011;5369;49.586;8.646;2023-02-10T04:52:20;43.90;;;25.90;;
10641;SDS011;5369;49.586;8.646;2023-02-10T04:54:47;47.10;;;25.87;;
10641;SDS011;5369;49.586;8.646;2023-02-10T04:57:13;47.60;;;26.93;;
10641;SDS011;5369;49.586;8.646;2023-02-10T04:59:39;47.43;;;26.57;;
10641;SDS011;5369;49.586;8.646;2023-02-10T05:02:05;47.07;;;26.30;;
10641;SDS011;5369;49.586;8.646;2023-02-10T05:04:31;44.07;;;25.20;;
10641;SDS011;5369;49.586;8.646;2023-02-10T05:06:57;46.40;;;26.13;;
10641;SDS011;5369;49.586;8.646;2023-02-10T05:09:24;46.07;;;27.13;;
10641;SDS011;5369;49.586;8.646;2023-02-10T05:11:51;49.10;;;27.60;;
10641;SDS011;5369;49.586;8.646;2023-02-10T05:14:18;49.80;;;26.10;;
10641;SDS011;5369;49.586;8.646;2023-02-10T05:16:44;47.93;;;26.13;;
10641;SDS011;5369;49.586;8.646;2023-02-10T05:19:10;45.87;;;25.73;;
10641;SDS011;5369;49.586;8.646;2023-02-10T05:21:36;44.63;;;26.07;;
10641;SDS011;5369;49.586;8.646;2023-02-10T05:24:02;44.10;;;25.23;;
10641;SDS011;5369;49.586;8.646;2023-02-10T05:26:28;44.57;;;26.30;;
10641;SDS011;5369;49.586;8.646;2023-02-10T05:28:55;40.63;;;24.00;;
10641;SDS011;5369;49.586;8.646;2023-02-10T05:31:21;45.43;;;26.43;;
10641;SDS011;5369;49.586;8.646;2023-02-10T05:33:47;41.47;;;23.83;;
10641;SDS011;5369;49.586;8.646;2023-02-10T05:36:13;42.90;;;24.53;;
10641;SDS011;5369;49.586;8.646;2023-02-10T05:38:39;43.93;;;24.33;;
10641;SDS011;5369;49.586;8.646;2023-02-10T05:41:25;48.30;;;27.50;;
10641;SDS011;5369;49.586;8.646;2023-02-10T05:43:51;46.30;;;27.13;;
10641;SDS011;5369;49.586;8.646;2023-02-10T05:46:17;44.50;;;24.57;;
10641;SDS011;5369;49.586;8.646;2023-02-10T05:48:44;41.20;;;24.80;;
10641;SDS011;5369;49.586;8.646;2023-02-10T05:51:10;48.37;;;26.07;;
10641;SDS011;5369;49.586;8.646;2023-02-10T05:53:36;42.73;;;25.47;;
10641;SDS011;5369;49.586;8.646;2023-02-10T05:56:02;44.07;;;25.80;;
10641;SDS011;5369;49.586;8.646;2023-02-10T05:58:29;47.70;;;29.37;;
10641;SDS011;5369;49.586;8.646;2023-02-10T06:00:57;50.63;;;29.53;;
10641;SDS011;5369;49.586;8.646;2023-02-10T06:03:24;49.30;;;27.20;;
10641;SDS011;5369;49.586;8.646;2023-02-10T06:05:50;43.30;;;25.27;;
10641;SDS011;5369;49.586;8.646;2023-02-10T06:08:16;44.28;;;26.75;;
10641;SDS011;5369;49.586;8.646;2023-02-10T06:10:43;38.97;;;23.77;;
10641;SDS011;5369;49.586;8.646;2023-02-10T06:13:09;43.80;;;25.83;;
10641;SDS011;5369;49.586;8.646;2023-02-10T06:15:35;41.87;;;23.73;;
10641;SDS011;5369;49.586;8.646;2023-02-10T06:18:01;45.43;;;25.17;;
10641;SDS011;5369;49.586;8.646;2023-02-10T06:20:28;43.73;;;25.33;;
10641;SDS011;5369;49.586;8.646;2023-02-10T06:22:54;45.65;;;30.60;;
10641;SDS011;5369;49.586;8.646;2023-02-10T06:25:20;46.30;;;28.40;;
10641;SDS011;5369;49.586;8.646;2023-02-10T06:27:46;51.80;;;28.73;;
10641;SDS011;5369;49.586;8.646;2023-02-10T06:30:12;47.42;;;30.20;;
10641;SDS011;5369;49.586;8.646;2023-02-10T06:32:38;47.70;;;27.97;;
10641;SDS011;5369;49.586;8.646;2023-02-10T06:35:04;50.28;;;30.60;;
10641;SDS011;5369;49.586;8.646;2023-02-10T06:37:31;43.37;;;26.63;;
10641;SDS011;5369;49.586;8.646;2023-02-10T06:39:57;41.20;;;25.63;;
10641;SDS011;5369;49.586;8.646;2023-02-10T06:42:23;50.80;;;28.40;;
10641;SDS011;5369;49.586;8.646;2023-02-10T06:44:49;45.67;;;26.53;;
10641;SDS011;5369;49.586;8.646;2023-02-10T06:47:15;45.87;;;26.27;;
10641;SDS011;5369;49.586;8.646;2023-02-10T06:49:41;49.97;;;27.67;;
10641;SDS011;5369;49.586;8.646;2023-02-10T06:52:08;49.13;;;27.10;;
10641;SDS011;5369;49.586;8.646;2023-02-10T06:54:34;53.40;;;29.70;;
10641;SDS011;5369;49.586;8.646;2023-02-10T06:57:00;45.33;;;26.43;;
10641;SDS011;5369;49.586;8.646;2023-02-10T06:59:27;53.60;;;29.30;;
10641;SDS011;5369;49.586;8.646;2023-02-10T07:01:53;53.70;;;29.90;;
10641;SDS011;5369;49.586;8.646;2023-02-10T07:04:26;45.37;;;26.53;;
10641;SDS011;5369;49.586;8.646;2023-02-10T07:06:52;50.50;;;27.63;;
10641;SDS011;5369;49.586;8.646;2023-02-10T07:09:18;46.87;;;27.37;;
10641;SDS011;5369;49.586;8.646;2023-02-10T07:11:45;46.60;;;26.03;;
10641;SDS011;5369;49.586;8.646;2023-02-10T07:14:11;43.43;;;24.77;;
10641;SDS011;5369;49.586;8.646;2023-02-10T07:16:37;44.13;;;25.50;;
10641;SDS011;5369;49.586;8.646;2023-02-10T07:19:04;47.70;;;26.33;;
10641;SDS011;5369;49.586;8.646;2023-02-10T07:21:30;42.20;;;24.57;;
10641;SDS011;5369;49.586;8.646;2023-02-10T07:23:56;41.73;;;24.60;;
10641;SDS011;5369;49.586;8.646;2023-02-10T07:26:22;43.83;;;24.00;;
10641;SDS011;5369;49.586;8.646;2023-02-10T07:28:48;42.57;;;23.20;;
10641;SDS011;5369;49.586;8.646;2023-02-10T07:31:15;39.43;;;23.23;;
10641;SDS011;5369;49.586;8.646;2023-02-10T07:33:41;39.90;;;23.13;;
10641;SDS011;5369;49.586;8.646;2023-02-10T07:36:07;40.50;;;22.93;;
10641;SDS011;5369;49.586;8.646;2023-02-10T07:38:34;41.57;;;23.73;;
10641;SDS011;5369;49.586;8.646;2023-02-10T07:41:01;41.80;;;22.83;;
10641;SDS011;5369;49.586;8.646;2023-02-10T07:43:27;37.83;;;22.10;;
10641;SDS011;5369;49.586;8.646;2023-02-10T07:46:04;38.00;;;21.80;;
10641;SDS011;5369;49.586;8.646;2023-02-10T07:48:30;40.20;;;23.60;;
10641;SDS011;5369;49.586;8.646;2023-02-10T07:50:57;37.43;;;22.63;;
10641;SDS011;5369;49.586;8.646;2023-02-10T07:53:23;43.97;;;24.33;;
10641;SDS011;5369;49.586;8.646;2023-02-10T07:55:49;42.40;;;22.80;;
10641;SDS011;5369;49.586;8.646;2023-02-10T07:58:15;42.13;;;24.40;;
10641;SDS011;5369;49.586;8.646;2023-02-10T08:00:42;37.23;;;22.43;;
10641;SDS011;5369;49.586;8.646;2023-02-10T08:03:11;35.43;;;22.27;;
10641;SDS011;5369;49.586;8.646;2023-02-10T08:05:38;43.97;;;25.77;;
10641;SDS011;5369;49.586;8.646;2023-02-10T08:08:04;42.10;;;25.27;;
10641;SDS011;5369;49.586;8.646;2023-02-10T08:10:30;43.00;;;24.83;;
10641;SDS011;5369;49.586;8.646;2023-02-10T08:12:56;44.43;;;25.90;;
10641;SDS011;5369;49.586;8.646;2023-02-10T08:15:22;42.47;;;25.30;;
10641;SDS011;5369;49.586;8.646;2023-02-10T08:17:50;43.37;;;25.97;;
10641;SDS011;5369;49.586;8.646;2023-02-10T08:20:16;42.27;;;26.50;;
10641;SDS011;5369;49.586;8.646;2023-02-10T08:22:42;44.30;;;27.57;;
10641;SDS011;5369;49.586;8.646;2023-02-10T08:25:09;45.47;;;25.87;;
10641;SDS011;5369;49.586;8.646;2023-02-10T08:27:35;49.37;;;27.27;;
10641;SDS011;5369;49.586;8.646;2023-02-10T08:30:01;43.30;;;25.97;;
10641;SDS011;5369;49.586;8.646;2023-02-10T08:32:30;43.43;;;27.70;;
10641;SDS011;5369;49.586;8.646;2023-02-10T08:34:56;43.13;;;27.30;;
10641;SDS011;5369;49.586;8.646;2023-02-10T08:37:22;45.57;;;27.47;;
10641;SDS011;5369;49.586;8.646;2023-02-10T08:39:48;43.50;;;26.70;;
10641;SDS011;5369;49.586;8.646;2023-02-10T08:42:14;42.07;;;27.00;;
10641;SDS011;5369;49.586;8.646;2023-02-10T08:44:40;49.33;;;29.33;;
10641;SDS011;5369;49.586;8.646;2023-02-10T08:47:06;44.87;;;28.07;;
10641;SDS011;5369;49.586;8.646;2023-02-10T08:49:39;47.77;;;27.00;;
10641;SDS011;5369;49.586;8.646;2023-02-10T08:52:06;45.33;;;26.97;;
10641;SDS011;5369;49.586;8.646;2023-02-10T08:54:32;44.13;;;28.40;;
10641;SDS011;5369;49.586;8.646;2023-02-10T08:56:59;45.00;;;27.50;;
10641;SDS011;5369;49.586;8.646;2023-02-10T08:59:25;47.93;;;28.43;;
10641;SDS011;5369;49.586;8.646;2023-02-10T09:01:51;48.37;;;29.67;;
10641;SDS011;5369;49.586;8.646;2023-02-10T09:04:18;48.97;;;30.03;;
10641;SDS011;5369;49.586;8.646;2023-02-10T09:06:45;43.33;;;27.23;;
10641;SDS011;5369;49.586;8.646;2023-02-10T09:09:12;49.33;;;30.23;;
10641;SDS011;5369;49.586;8.646;2023-02-10T09:11:39;48.03;;;28.83;;
10641;SDS011;5369;49.586;8.646;2023-02-10T09:14:06;49.43;;;30.30;;
10641;SDS011;5369;49.586;8.646;2023-02-10T09:16:32;50.93;;;32.20;;
10641;SDS011;5369;49.586;8.646;2023-02-10T09:18:59;52.67;;;33.97;;
10641;SDS011;5369;49.586;8.646;2023-02-10T09:21:25;47.43;;;30.67;;
10641;SDS011;5369;49.586;8.646;2023-02-10T09:23:51;48.73;;;33.03;;
10641;SDS011;5369;49.586;8.646;2023-02-10T09:26:18;48.67;;;32.53;;
10641;SDS011;5369;49.586;8.646;2023-02-10T09:28:44;52.20;;;33.23;;
10641;SDS011;5369;49.586;8.646;2023-02-10T09:31:11;50.70;;;31.60;;
10641;SDS011;5369;49.586;8.646;2023-02-10T09:33:38;46.50;;;29.87;;
10641;SDS011;5369;49.586;8.646;2023-02-10T09:36:04;50.00;;;32.80;;
10641;SDS011;5369;49.586;8.646;2023-02-10T09:38:31;54.23;;;33.30;;
10641;SDS011;5369;49.586;8.646;2023-02-10T09:46:42;50.13;;;32.13;;
10641;SDS011;5369;49.586;8.646;2023-02-10T09:49:15;48.23;;;31.27;;
10641;SDS011;5369;49.586;8.646;2023-02-10T09:54:22;46.37;;;29.93;;
10641;SDS011;5369;49.586;8.646;2023-02-10T09:56:48;51.77;;;33.10;;
10641;SDS011;5369;49.586;8.646;2023-02-10T09:59:16;47.50;;;30.33;;
10641;SDS011;5369;49.586;8.646;2023-02-10T10:01:46;50.63;;;32.13;;
10641;SDS011;5369;49.586;8.646;2023-02-10T10:04:16;48.37;;;31.10;;
10641;SDS011;5369;49.586;8.646;2023-02-10T10:06:44;49.90;;;31.27;;
10641;SDS011;5369;49.586;8.646;2023-02-10T10:11:51;49.27;;;32.20;;
10641;SDS011;5369;49.586;8.646;2023-02-10T10:27:02;43.70;;;28.43;;
10641;SDS011;5369;49.586;8.646;2023-02-10T10:29:39;48.97;;;30.03;;
10641;SDS011;5369;49.586;8.646;2023-02-10T10:32:12;47.23;;;31.03;;
10641;SDS011;5369;49.586;8.646;2023-02-10T10:34:40;47.70;;;31.50;;
10641;SDS011;5369;49.586;8.646;2023-02-10T10:37:11;42.97;;;28.97;;
10641;SDS011;5369;49.586;8.646;2023-02-10T10:39:43;44.77;;;30.13;;
10641;SDS011;5369;49.586;8.646;2023-02-10T10:42:19;45.57;;;29.53;;
10641;SDS011;5369;49.586;8.646;2023-02-10T10:44:49;46.30;;;31.17;;
10641;SDS011;5369;49.586;8.646;2023-02-10T10:47:20;46.53;;;30.40;;
10641;SDS011;5369;49.586;8.646;2023-02-10T10:49:51;46.77;;;29.27;;
10641;SDS011;5369;49.586;8.646;2023-02-10T10:52:23;47.13;;;30.10;;
10641;SDS011;5369;49.586;8.646;2023-02-10T10:54:52;44.67;;;28.60;;
10641;SDS011;5369;49.586;8.646;2023-02-10T10:57:18;49.30;;;30.53;;
10641;SDS011;5369;49.586;8.646;2023-02-10T10:59:46;45.67;;;30.53;;
10641;SDS011;5369;49.586;8.646;2023-02-10T11:02:16;46.00;;;29.30;;
10641;SDS011;5369;49.586;8.646;2023-02-10T11:04:43;41.40;;;27.33;;
10641;SDS011;5369;49.586;8.646;2023-02-10T11:07:18;40.30;;;27.20;;
10641;SDS011;5369;49.586;8.646;2023-02-10T11:09:49;43.10;;;27.77;;
10641;SDS011;5369;49.586;8.646;2023-02-10T11:12:17;44.37;;;30.03;;
10641;SDS011;5369;49.586;8.646;2023-02-10T11:14:45;41.30;;;26.27;;
10641;SDS011;5369;49.586;8.646;2023-02-10T11:17:20;38.63;;;26.27;;
10641;SDS011;5369;49.586;8.646;2023-02-10T11:19:57;41.93;;;27.13;;
10641;SDS011;5369;49.586;8.646;2023-02-10T11:22:24;43.83;;;28.90;;
10641;SDS011;5369;49.586;8.646;2023-02-10T11:24:51;45.67;;;28.37;;
10641;SDS011;5369;49.586;8.646;2023-02-10T11:27:18;40.77;;;26.23;;
10641;SDS011;5369;49.586;8.646;2023-02-10T11:29:52;42.30;;;26.83;;
10641;SDS011;5369;49.586;8.646;2023-02-10T11:32:19;42.07;;;26.53;;
10641;SDS011;5369;49.586;8.646;2023-02-10T11:34:46;43.20;;;26.63;;
10641;SDS011;5369;49.586;8.646;2023-02-10T11:37:27;40.13;;;26.03;;
10641;SDS011;5369;49.586;8.646;2023-02-10T11:39:55;39.47;;;26.30;;
10641;SDS011;5369;49.586;8.646;2023-02-10T11:42:23;41.67;;;27.37;;
10641;SDS011;5369;49.586;8.646;2023-02-10T11:44:55;40.43;;;26.37;;
10641;SDS011;5369;49.586;8.646;2023-02-10T11:47:21;38.83;;;27.47;;
10641;SDS011;5369;49.586;8.646;2023-02-10T11:49:48;39.13;;;26.47;;
10641;SDS011;5369;49.586;8.646;2023-02-10T11:52:15;44.50;;;27.90;;
10641;SDS011;5369;49.586;8.646;2023-02-10T11:54:42;38.70;;;27.10;;
10641;SDS011;5369;49.586;8.646;2023-02-10T12:02:54;40.13;;;26.40;;
10641;SDS011;5369;49.586;8.646;2023-02-10T12:08:15;40.43;;;26.93;;
10641;SDS011;5369;49.586;8.646;2023-02-10T12:10:47;39.60;;;26.23;;
10641;SDS011;5369;49.586;8.646;2023-02-10T12:13:27;38.30;;;25.77;;
10641;SDS011;5369;49.586;8.646;2023-02-10T12:18:59;37.23;;;24.47;;
10641;SDS011;5369;49.586;8.646;2023-02-10T12:24:11;40.80;;;26.67;;
10641;SDS011;5369;49.586;8.646;2023-02-10T12:26:50;39.30;;;26.43;;
10641;SDS011;5369;49.586;8.646;2023-02-10T12:29:24;37.17;;;25.83;;
10641;SDS011;5369;49.586;8.646;2023-02-10T12:34:38;41.83;;;25.77;;
10641;SDS011;5369;49.586;8.646;2023-02-10T12:40:10;37.17;;;25.93;;
10641;SDS011;5369;49.586;8.646;2023-02-10T12:45:26;43.20;;;28.33;;
10641;SDS011;5369;49.586;8.646;2023-02-10T12:50:46;38.67;;;26.50;;
10641;SDS011;5369;49.586;8.646;2023-02-10T12:53:17;37.17;;;25.30;;
10641;SDS011;5369;49.586;8.646;2023-02-10T12:55:55;35.97;;;25.70;;
10641;SDS011;5369;49.586;8.646;2023-02-10T12:58:25;39.13;;;27.47;;
10641;SDS011;5369;49.586;8.646;2023-02-10T13:01:04;32.90;;;24.73;;
10641;SDS011;5369;49.586;8.646;2023-02-10T13:03:32;34.57;;;25.33;;
10641;SDS011;5369;49.586;8.646;2023-02-10T13:08:28;37.87;;;27.93;;
10641;SDS011;5369;49.586;8.646;2023-02-10T13:10:58;34.57;;;25.97;;
10641;SDS011;5369;49.586;8.646;2023-02-10T13:13:26;32.70;;;25.87;;
10641;SDS011;5369;49.586;8.646;2023-02-10T13:16:13;32.23;;;25.40;;
10641;SDS011;5369;49.586;8.646;2023-02-10T13:19:03;29.50;;;23.40;;
10641;SDS011;5369;49.586;8.646;2023-02-10T13:21:37;31.60;;;23.97;;
10641;SDS011;5369;49.586;8.646;2023-02-10T13:24:08;34.13;;;25.03;;
10641;SDS011;5369;49.586;8.646;2023-02-10T13:26:39;35.70;;;26.87;;
10641;SDS011;5369;49.586;8.646;2023-02-10T13:29:17;37.03;;;28.07;;
10641;SDS011;5369;49.586;8.646;2023-02-10T13:34:49;33.40;;;24.60;;
10641;SDS011;5369;49.586;8.646;2023-02-10T13:37:21;34.60;;;25.53;;
10641;SDS011;5369;49.586;8.646;2023-02-10T13:39:50;37.40;;;27.90;;
10641;SDS011;5369;49.586;8.646;2023-02-10T13:42:23;33.67;;;25.43;;
10641;SDS011;5369;49.586;8.646;2023-02-10T13:45:51;33.20;;;24.00;;
10641;SDS011;5369;49.586;8.646;2023-02-10T13:52:52;31.53;;;24.43;;
10641;SDS011;5369;49.586;8.646;2023-02-10T13:57:52;45.57;;;25.17;;
10641;SDS011;5369;49.586;8.646;2023-02-10T14:00:20;38.57;;;26.67;;
10641;SDS011;5369;49.586;8.646;2023-02-10T14:03:03;36.03;;;25.93;;
10641;SDS011;5369;49.586;8.646;2023-02-10T14:05:31;36.40;;;25.83;;
10641;SDS011;5369;49.586;8.646;2023-02-10T14:07:58;36.83;;;26.20;;
10641;SDS011;5369;49.586;8.646;2023-02-10T14:10:27;35.20;;;25.90;;
10641;SDS011;5369;49.586;8.646;2023-02-10T14:13:36;36.20;;;26.27;;
10641;SDS011;5369;49.586;8.646;2023-02-10T14:15:43;32.43;;;24.20;;
10641;SDS011;5369;49.586;8.646;2023-02-10T14:18:24;33.97;;;24.40;;
10641;SDS011;5369;49.586;8.646;2023-02-10T14:21:09;36.17;;;25.00;;
10641;SDS011;5369;49.586;8.646;2023-02-10T14:23:37;35.97;;;25.63;;
10641;SDS011;5369;49.586;8.646;2023-02-10T14:26:05;35.70;;;25.87;;
10641;SDS011;5369;49.586;8.646;2023-02-10T14:28:36;35.53;;;25.77;;
10641;SDS011;5369;49.586;8.646;2023-02-10T14:31:04;33.73;;;25.17;;
10641;SDS011;5369;49.586;8.646;2023-02-10T14:33:32;32.50;;;23.97;;
10641;SDS011;5369;49.586;8.646;2023-02-10T14:36:00;36.57;;;25.77;;
10641;SDS011;5369;49.586;8.646;2023-02-10T14:38:27;35.80;;;25.33;;
10641;SDS011;5369;49.586;8.646;2023-02-10T14:40:54;33.07;;;23.77;;
10641;SDS011;5369;49.586;8.646;2023-02-10T14:43:22;34.50;;;23.80;;
10641;SDS011;5369;49.586;8.646;2023-02-10T14:45:48;37.43;;;23.93;;
10641;SDS011;5369;49.586;8.646;2023-02-10T14:48:14;34.83;;;23.90;;
10641;SDS011;5369;49.586;8.646;2023-02-10T14:50:55;32.70;;;23.17;;
10641;SDS011;5369;49.586;8.646;2023-02-10T14:53:22;34.07;;;22.97;;
10641;SDS011;5369;49.586;8.646;2023-02-10T14:55:52;35.90;;;23.97;;
10641;SDS011;5369;49.586;8.646;2023-02-10T14:58:18;33.70;;;23.63;;
10641;SDS011;5369;49.586;8.646;2023-02-10T15:00:57;32.17;;;23.07;;
10641;SDS011;5369;49.586;8.646;2023-02-10T15:03:24;38.57;;;23.33;;
10641;SDS011;5369;49.586;8.646;2023-02-10T15:05:52;33.23;;;22.33;;
10641;SDS011;5369;49.586;8.646;2023-02-10T15:08:23;35.47;;;23.27;;
10641;SDS011;5369;49.586;8.646;2023-02-10T15:10:52;29.90;;;21.67;;
10641;SDS011;5369;49.586;8.646;2023-02-10T15:13:24;32.70;;;22.33;;
10641;SDS011;5369;49.586;8.646;2023-02-10T15:15:52;31.97;;;21.57;;
10641;SDS011;5369;49.586;8.646;2023-02-10T15:18:19;31.90;;;21.47;;
10641;SDS011;5369;49.586;8.646;2023-02-10T15:20:54;32.60;;;22.07;;
10641;SDS011;5369;49.586;8.646;2023-02-10T15:23:20;28.47;;;20.17;;
10641;SDS011;5369;49.586;8.646;2023-02-10T15:25:46;43.63;;;24.23;;
10641;SDS011;5369;49.586;8.646;2023-02-10T15:33:28;31.87;;;21.73;;
10641;SDS011;5369;49.586;8.646;2023-02-10T15:38:22;31.27;;;21.40;;
10641;SDS011;5369;49.586;8.646;2023-02-10T15:40:55;35.63;;;24.23;;
10641;SDS011;5369;49.586;8.646;2023-02-10T15:43:24;32.83;;;22.30;;
10641;SDS011;5369;49.586;8.646;2023-02-10T15:45:50;37.27;;;24.53;;
10641;SDS011;5369;49.586;8.646;2023-02-10T15:48:20;35.23;;;23.20;;
10641;SDS011;5369;49.586;8.646;2023-02-10T15:50:47;35.40;;;25.03;;
10641;SDS011;5369;49.586;8.646;2023-02-10T15:53:18;36.70;;;24.50;;
10641;SDS011;5369;49.586;8.646;2023-02-10T15:55:46;36.90;;;24.70;;
10641;SDS011;5369;49.586;8.646;2023-02-10T15:58:12;34.73;;;22.80;;
10641;SDS011;5369;49.586;8.646;2023-02-10T16:00:39;40.47;;;26.83;;
10641;SDS011;5369;49.586;8.646;2023-02-10T16:03:09;35.63;;;25.03;;